sensor_id;sensor_type;location;lat;lon;timestamp;P1;durP1;ratioP1;P2;durP2;ratioP2
82265;SDS011;71866;53.340;-6.308;2023-08-12T00:01:21;9.00;;;1.80;;
82265;SDS011;71866;53.340;-6.308;2023-08-12T00:03:48;5.97;;;1.30;;
82265;SDS011;71866;53.340;-6.308;2023-08-12T00:06:16;5.95;;;1.15;;
82265;SDS011;71866;53.340;-6.308;2023-08-12T00:08:43;7.15;;;1.35;;
82265;SDS011;71866;53.340;-6.308;2023-08-12T00:11:10;8.82;;;2.03;;
82265;SDS011;71866;53.340;-6.308;2023-08-12T00:13:37;8.90;;;1.60;;
82265;SDS011;71866;53.340;-6.308;2023-08-12T00:16:03;11.77;;;1.73;;
82265;SDS011;71866;53.340;-6.308;2023-08-12T00:18:31;8.90;;;1.60;;
82265;SDS011;71866;53.340;-6.308;2023-08-12T00:20:58;8.93;;;1.35;;
82265;SDS011;71866;53.340;-6.308;2023-08-12T00:23:25;6.53;;;1.45;;
82265;SDS011;71866;53.340;-6.308;2023-08-12T00:25:52;12.05;;;1.55;;
82265;SDS011;71866;53.340;-6.308;2023-08-12T00:28:19;8.15;;;1.70;;
82265;SDS011;71866;53.340;-6.308;2023-08-12T00:30:47;6.55;;;1.88;;
82265;SDS011;71866;53.340;-6.308;2023-08-12T00:33:14;11.07;;;1.48;;
82265;SDS011;71866;53.340;-6.308;2023-08-12T00:35:42;9.95;;;1.40;;
82265;SDS011;71866;53.340;-6.308;2023-08-12T00:38:08;10.07;;;2.30;;
82265;SDS011;71866;53.340;-6.308;2023-08-12T00:40:35;7.18;;;1.70;;
82265;SDS011;71866;53.340;-6.308;2023-08-12T00:43:03;9.40;;;1.25;;
82265;SDS011;71866;53.340;-6.308;2023-08-12T00:45:30;7.70;;;1.60;;
82265;SDS011;71866;53.340;-6.308;2023-08-12T00:47:57;10.95;;;1.35;;
82265;SDS011;71866;53.340;-6.308;2023-08-12T00:50:24;9.82;;;1.10;;
82265;SDS011;71866;53.340;-6.308;2023-08-12T00:52:52;6.70;;;1.20;;
82265;SDS011;71866;53.340;-6.308;2023-08-12T00:55:19;11.00;;;1.48;;
82265;SDS011;71866;53.340;-6.308;2023-08-12T00:57:46;7.75;;;1.50;;
82265;SDS011;71866;53.340;-6.308;2023-08-12T01:00:14;13.65;;;1.45;;
82265;SDS011;71866;53.340;-6.308;2023-08-12T01:02:42;7.38;;;1.00;;
82265;SDS011;71866;53.340;-6.308;2023-08-12T01:05:12;7.82;;;1.10;;
82265;SDS011;71866;53.340;-6.308;2023-08-12T01:07:40;12.35;;;1.80;;
82265;SDS011;71866;53.340;-6.308;2023-08-12T01:10:07;8.27;;;1.15;;
82265;SDS011;71866;53.340;-6.308;2023-08-12T01:12:37;7.10;;;1.35;;
82265;SDS011;71866;53.340;-6.308;2023-08-12T01:15:12;10.75;;;1.38;;
82265;SDS011;71866;53.340;-6.308;2023-08-12T01:17:42;7.50;;;1.70;;
82265;SDS011;71866;53.340;-6.308;2023-08-12T01:20:10;8.43;;;1.50;;
82265;SDS011;71866;53.340;-6.308;2023-08-12T01:22:39;9.10;;;1.15;;
82265;SDS011;71866;53.340;-6.308;2023-08-12T01:25:07;9.35;;;1.35;;
82265;SDS011;71866;53.340;-6.308;2023-08-12T01:30:03;9.93;;;1.42;;
82265;SDS011;71866;53.340;-6.308;2023-08-12T01:37:46;9.75;;;1.40;;
82265;SDS011;71866;53.340;-6.308;2023-08-12T01:40:17;10.40;;;1.50;;
82265;SDS011;71866;53.340;-6.308;2023-08-12T01:42:45;7.07;;;1.38;;
82265;SDS011;71866;53.340;-6.308;2023-08-12T01:45:13;9.00;;;1.23;;
82265;SDS011;71866;53.340;-6.308;2023-08-12T01:47:43;7.78;;;1.45;;
82265;SDS011;71866;53.340;-6.308;2023-08-12T01:50:11;10.18;;;2.75;;
82265;SDS011;71866;53.340;-6.308;2023-08-12T01:52:38;8.70;;;2.85;;
82265;SDS011;71866;53.340;-6.308;2023-08-12T01:55:06;5.32;;;1.20;;
82265;SDS011;71866;53.340;-6.308;2023-08-12T01:57:33;8.45;;;1.30;;
82265;SDS011;71866;53.340;-6.308;2023-08-12T02:00:01;8.25;;;1.10;;
82265;SDS011;71866;53.340;-6.308;2023-08-12T02:02:28;8.05;;;1.05;;
82265;SDS011;71866;53.340;-6.308;2023-08-12T02:04:55;8.35;;;1.20;;
82265;SDS011;71866;53.340;-6.308;2023-08-12T02:07:23;3.53;;;0.95;;
82265;SDS011;71866;53.340;-6.308;2023-08-12T02:09:49;3.20;;;0.98;;
82265;SDS011;71866;53.340;-6.308;2023-08-12T02:12:16;9.50;;;0.90;;
82265;SDS011;71866;53.340;-6.308;2023-08-12T02:14:44;5.30;;;1.00;;
82265;SDS011;71866;53.340;-6.308;2023-08-12T02:17:10;5.88;;;1.05;;
82265;SDS011;71866;53.340;-6.308;2023-08-12T02:19:39;3.72;;;0.70;;
82265;SDS011;71866;53.340;-6.308;2023-08-12T02:22:06;3.03;;;0.57;;
82265;SDS011;71866;53.340;-6.308;2023-08-12T02:24:34;5.68;;;0.90;;
82265;SDS011;71866;53.340;-6.308;2023-08-12T02:27:00;3.05;;;0.70;;
82265;SDS011;71866;53.340;-6.308;2023-08-12T02:29:28;3.85;;;0.70;;
82265;SDS011;71866;53.340;-6.308;2023-08-12T02:31:54;4.03;;;0.60;;
82265;SDS011;71866;53.340;-6.308;2023-08-12T02:34:21;4.80;;;0.90;;
82265;SDS011;71866;53.340;-6.308;2023-08-12T02:36:49;3.75;;;0.90;;
82265;SDS011;71866;53.340;-6.308;2023-08-12T02:39:15;2.67;;;0.65;;
82265;SDS011;71866;53.340;-6.308;2023-08-12T02:41:43;4.07;;;0.95;;
82265;SDS011;71866;53.340;-6.308;2023-08-12T02:44:10;5.15;;;0.80;;
82265;SDS011;71866;53.340;-6.308;2023-08-12T02:46:37;2.63;;;0.70;;
82265;SDS011;71866;53.340;-6.308;2023-08-12T02:49:04;4.07;;;0.63;;
82265;SDS011;71866;53.340;-6.308;2023-08-12T02:51:30;6.05;;;1.00;;
82265;SDS011;71866;53.340;-6.308;2023-08-12T02:53:58;5.35;;;0.90;;
82265;SDS011;71866;53.340;-6.308;2023-08-12T02:56:25;4.85;;;0.80;;
82265;SDS011;71866;53.340;-6.308;2023-08-12T02:58:52;5.40;;;0.80;;
82265;SDS011;71866;53.340;-6.308;2023-08-12T03:01:20;4.18;;;0.75;;
82265;SDS011;71866;53.340;-6.308;2023-08-12T03:03:47;1.98;;;0.52;;
82265;SDS011;71866;53.340;-6.308;2023-08-12T03:06:15;4.68;;;0.90;;
82265;SDS011;71866;53.340;-6.308;2023-08-12T03:08:42;4.22;;;1.30;;
82265;SDS011;71866;53.340;-6.308;2023-08-12T03:11:09;5.82;;;1.38;;
82265;SDS011;71866;53.340;-6.308;2023-08-12T03:13:36;5.50;;;0.70;;
82265;SDS011;71866;53.340;-6.308;2023-08-12T03:16:03;4.88;;;0.75;;
82265;SDS011;71866;53.340;-6.308;2023-08-12T03:18:30;1.55;;;0.43;;
82265;SDS011;71866;53.340;-6.308;2023-08-12T03:20:57;3.50;;;1.00;;
82265;SDS011;71866;53.340;-6.308;2023-08-12T03:23:25;7.18;;;1.15;;
82265;SDS011;71866;53.340;-6.308;2023-08-12T03:25:51;4.18;;;0.77;;
82265;SDS011;71866;53.340;-6.308;2023-08-12T03:28:19;5.80;;;0.77;;
82265;SDS011;71866;53.340;-6.308;2023-08-12T03:30:52;5.80;;;1.08;;
82265;SDS011;71866;53.340;-6.308;2023-08-12T03:33:20;7.40;;;1.00;;
82265;SDS011;71866;53.340;-6.308;2023-08-12T03:35:47;4.90;;;0.60;;
82265;SDS011;71866;53.340;-6.308;2023-08-12T03:38:15;3.90;;;0.73;;
82265;SDS011;71866;53.340;-6.308;2023-08-12T03:40:43;5.38;;;1.10;;
82265;SDS011;71866;53.340;-6.308;2023-08-12T03:43:09;5.57;;;0.70;;
82265;SDS011;71866;53.340;-6.308;2023-08-12T03:48:09;4.10;;;0.75;;
82265;SDS011;71866;53.340;-6.308;2023-08-12T03:50:37;6.28;;;0.70;;
82265;SDS011;71866;53.340;-6.308;2023-08-12T03:53:05;6.32;;;1.15;;
82265;SDS011;71866;53.340;-6.308;2023-08-12T03:58:00;6.75;;;1.13;;
82265;SDS011;71866;53.340;-6.308;2023-08-12T04:00:28;3.40;;;0.45;;
82265;SDS011;71866;53.340;-6.308;2023-08-12T04:02:55;3.55;;;0.63;;
82265;SDS011;71866;53.340;-6.308;2023-08-12T04:05:23;2.42;;;0.52;;
82265;SDS011;71866;53.340;-6.308;2023-08-12T04:07:49;3.00;;;0.50;;
82265;SDS011;71866;53.340;-6.308;2023-08-12T04:10:16;4.70;;;0.73;;
82265;SDS011;71866;53.340;-6.308;2023-08-12T04:12:44;3.33;;;0.55;;
82265;SDS011;71866;53.340;-6.308;2023-08-12T04:15:10;6.00;;;0.93;;
82265;SDS011;71866;53.340;-6.308;2023-08-12T04:17:38;4.07;;;0.80;;
82265;SDS011;71866;53.340;-6.308;2023-08-12T04:20:06;3.75;;;0.90;;
82265;SDS011;71866;53.340;-6.308;2023-08-12T04:22:34;4.82;;;0.85;;
82265;SDS011;71866;53.340;-6.308;2023-08-12T04:25:01;9.23;;;1.00;;
82265;SDS011;71866;53.340;-6.308;2023-08-12T04:27:29;6.53;;;1.00;;
82265;SDS011;71866;53.340;-6.308;2023-08-12T04:29:57;4.10;;;0.80;;
82265;SDS011;71866;53.340;-6.308;2023-08-12T04:32:24;3.50;;;0.70;;
82265;SDS011;71866;53.340;-6.308;2023-08-12T04:34:50;1.95;;;0.60;;
82265;SDS011;71866;53.340;-6.308;2023-08-12T04:37:18;5.05;;;0.90;;
82265;SDS011;71866;53.340;-6.308;2023-08-12T04:39:45;3.85;;;0.75;;
82265;SDS011;71866;53.340;-6.308;2023-08-12T04:42:12;3.63;;;0.82;;
82265;SDS011;71866;53.340;-6.308;2023-08-12T04:44:39;3.92;;;0.50;;
82265;SDS011;71866;53.340;-6.308;2023-08-12T04:47:07;3.53;;;0.63;;
82265;SDS011;71866;53.340;-6.308;2023-08-12T04:49:33;3.28;;;0.60;;
82265;SDS011;71866;53.340;-6.308;2023-08-12T04:52:00;6.18;;;0.98;;
82265;SDS011;71866;53.340;-6.308;2023-08-12T04:54:27;3.88;;;0.65;;
82265;SDS011;71866;53.340;-6.308;2023-08-12T04:56:54;3.60;;;0.80;;
82265;SDS011;71866;53.340;-6.308;2023-08-12T04:59:22;7.00;;;0.85;;
82265;SDS011;71866;53.340;-6.308;2023-08-12T05:01:48;4.93;;;0.80;;
82265;SDS011;71866;53.340;-6.308;2023-08-12T05:04:29;4.60;;;0.80;;
82265;SDS011;71866;53.340;-6.308;2023-08-12T05:06:55;3.92;;;0.60;;
82265;SDS011;71866;53.340;-6.308;2023-08-12T05:09:23;3.92;;;0.52;;
82265;SDS011;71866;53.340;-6.308;2023-08-12T05:11:49;2.95;;;0.52;;
82265;SDS011;71866;53.340;-6.308;2023-08-12T05:14:17;4.88;;;1.17;;
82265;SDS011;71866;53.340;-6.308;2023-08-12T05:16:45;2.67;;;0.63;;
82265;SDS011;71866;53.340;-6.308;2023-08-12T05:19:11;4.55;;;1.08;;
82265;SDS011;71866;53.340;-6.308;2023-08-12T05:21:38;3.45;;;0.60;;
82265;SDS011;71866;53.340;-6.308;2023-08-12T05:24:06;3.50;;;0.90;;
82265;SDS011;71866;53.340;-6.308;2023-08-12T05:26:33;3.08;;;0.60;;
82265;SDS011;71866;53.340;-6.308;2023-08-12T05:29:01;3.75;;;0.70;;
82265;SDS011;71866;53.340;-6.308;2023-08-12T05:31:29;6.32;;;0.70;;
82265;SDS011;71866;53.340;-6.308;2023-08-12T05:33:55;6.00;;;1.00;;
82265;SDS011;71866;53.340;-6.308;2023-08-12T05:36:22;3.63;;;0.70;;
82265;SDS011;71866;53.340;-6.308;2023-08-12T05:38:50;2.03;;;0.50;;
82265;SDS011;71866;53.340;-6.308;2023-08-12T05:41:16;4.25;;;0.90;;
82265;SDS011;71866;53.340;-6.308;2023-08-12T05:43:44;5.82;;;0.90;;
82265;SDS011;71866;53.340;-6.308;2023-08-12T05:46:10;2.97;;;0.68;;
82265;SDS011;71866;53.340;-6.308;2023-08-12T05:48:38;2.63;;;0.55;;
82265;SDS011;71866;53.340;-6.308;2023-08-12T05:51:05;3.42;;;0.50;;
82265;SDS011;71866;53.340;-6.308;2023-08-12T05:53:32;4.65;;;0.93;;
82265;SDS011;71866;53.340;-6.308;2023-08-12T05:55:59;3.42;;;0.40;;
82265;SDS011;71866;53.340;-6.308;2023-08-12T05:58:27;3.35;;;0.50;;
82265;SDS011;71866;53.340;-6.308;2023-08-12T06:00:55;4.13;;;0.70;;
82265;SDS011;71866;53.340;-6.308;2023-08-12T06:03:21;1.63;;;0.40;;
82265;SDS011;71866;53.340;-6.308;2023-08-12T06:05:49;1.58;;;0.40;;
82265;SDS011;71866;53.340;-6.308;2023-08-12T06:08:16;2.58;;;0.50;;
82265;SDS011;71866;53.340;-6.308;2023-08-12T06:10:42;4.45;;;1.00;;
82265;SDS011;71866;53.340;-6.308;2023-08-12T06:13:10;4.47;;;0.45;;
82265;SDS011;71866;53.340;-6.308;2023-08-12T06:15:37;3.00;;;0.65;;
82265;SDS011;71866;53.340;-6.308;2023-08-12T06:18:03;4.20;;;0.50;;
82265;SDS011;71866;53.340;-6.308;2023-08-12T06:20:31;3.10;;;0.80;;
82265;SDS011;71866;53.340;-6.308;2023-08-12T06:23:00;3.80;;;0.57;;
82265;SDS011;71866;53.340;-6.308;2023-08-12T06:25:28;5.50;;;1.05;;
82265;SDS011;71866;53.340;-6.308;2023-08-12T06:27:55;1.75;;;0.50;;
82265;SDS011;71866;53.340;-6.308;2023-08-12T06:30:22;4.53;;;0.57;;
82265;SDS011;71866;53.340;-6.308;2023-08-12T06:32:49;4.28;;;1.02;;
82265;SDS011;71866;53.340;-6.308;2023-08-12T06:35:16;5.40;;;0.70;;
82265;SDS011;71866;53.340;-6.308;2023-08-12T06:37:44;3.78;;;0.95;;
82265;SDS011;71866;53.340;-6.308;2023-08-12T06:40:12;2.72;;;0.60;;
82265;SDS011;71866;53.340;-6.308;2023-08-12T06:42:38;5.05;;;0.75;;
82265;SDS011;71866;53.340;-6.308;2023-08-12T06:45:06;4.20;;;1.35;;
82265;SDS011;71866;53.340;-6.308;2023-08-12T06:47:33;2.30;;;0.57;;
82265;SDS011;71866;53.340;-6.308;2023-08-12T06:50:00;2.20;;;0.70;;
82265;SDS011;71866;53.340;-6.308;2023-08-12T06:52:27;6.28;;;0.85;;
82265;SDS011;71866;53.340;-6.308;2023-08-12T06:54:54;1.90;;;0.60;;
82265;SDS011;71866;53.340;-6.308;2023-08-12T06:57:22;4.85;;;0.47;;
82265;SDS011;71866;53.340;-6.308;2023-08-12T06:59:50;1.88;;;0.60;;
82265;SDS011;71866;53.340;-6.308;2023-08-12T07:02:17;4.68;;;1.05;;
82265;SDS011;71866;53.340;-6.308;2023-08-12T07:04:45;2.67;;;0.70;;
82265;SDS011;71866;53.340;-6.308;2023-08-12T07:07:13;4.10;;;0.63;;
82265;SDS011;71866;53.340;-6.308;2023-08-12T07:09:39;2.83;;;0.55;;
82265;SDS011;71866;53.340;-6.308;2023-08-12T07:12:06;2.55;;;0.70;;
82265;SDS011;71866;53.340;-6.308;2023-08-12T07:14:34;3.03;;;0.50;;
82265;SDS011;71866;53.340;-6.308;2023-08-12T07:17:00;4.40;;;0.52;;
82265;SDS011;71866;53.340;-6.308;2023-08-12T07:19:28;1.42;;;0.47;;
82265;SDS011;71866;53.340;-6.308;2023-08-12T07:21:55;2.33;;;0.60;;
82265;SDS011;71866;53.340;-6.308;2023-08-12T07:24:21;2.92;;;0.68;;
82265;SDS011;71866;53.340;-6.308;2023-08-12T07:26:49;3.00;;;0.85;;
82265;SDS011;71866;53.340;-6.308;2023-08-12T07:29:16;3.55;;;0.50;;
82265;SDS011;71866;53.340;-6.308;2023-08-12T07:31:43;2.58;;;0.50;;
82265;SDS011;71866;53.340;-6.308;2023-08-12T07:34:10;4.90;;;0.93;;
82265;SDS011;71866;53.340;-6.308;2023-08-12T07:36:37;3.80;;;0.52;;
82265;SDS011;71866;53.340;-6.308;2023-08-12T07:39:04;1.90;;;0.90;;
82265;SDS011;71866;53.340;-6.308;2023-08-12T07:41:32;1.73;;;0.57;;
82265;SDS011;71866;53.340;-6.308;2023-08-12T07:43:59;3.60;;;0.60;;
82265;SDS011;71866;53.340;-6.308;2023-08-12T07:46:27;3.65;;;0.60;;
82265;SDS011;71866;53.340;-6.308;2023-08-12T07:48:54;2.63;;;0.43;;
82265;SDS011;71866;53.340;-6.308;2023-08-12T07:51:23;2.42;;;0.40;;
82265;SDS011;71866;53.340;-6.308;2023-08-12T07:53:50;3.47;;;0.70;;
82265;SDS011;71866;53.340;-6.308;2023-08-12T07:56:17;1.30;;;0.32;;
82265;SDS011;71866;53.340;-6.308;2023-08-12T07:58:44;2.60;;;0.45;;
82265;SDS011;71866;53.340;-6.308;2023-08-12T08:01:11;2.67;;;0.47;;
82265;SDS011;71866;53.340;-6.308;2023-08-12T08:03:38;0.68;;;0.25;;
82265;SDS011;71866;53.340;-6.308;2023-08-12T08:06:05;1.50;;;0.30;;
82265;SDS011;71866;53.340;-6.308;2023-08-12T08:08:33;0.73;;;0.38;;
82265;SDS011;71866;53.340;-6.308;2023-08-12T08:10:59;2.60;;;0.30;;
82265;SDS011;71866;53.340;-6.308;2023-08-12T08:13:27;1.65;;;0.43;;
82265;SDS011;71866;53.340;-6.308;2023-08-12T08:15:54;1.48;;;0.40;;
82265;SDS011;71866;53.340;-6.308;2023-08-12T08:18:21;3.42;;;0.50;;
82265;SDS011;71866;53.340;-6.308;2023-08-12T08:20:48;2.13;;;0.40;;
82265;SDS011;71866;53.340;-6.308;2023-08-12T08:23:15;1.90;;;0.50;;
82265;SDS011;71866;53.340;-6.308;2023-08-12T08:25:42;4.07;;;0.70;;
82265;SDS011;71866;53.340;-6.308;2023-08-12T08:28:10;1.83;;;0.38;;
82265;SDS011;71866;53.340;-6.308;2023-08-12T08:30:36;1.60;;;0.45;;
82265;SDS011;71866;53.340;-6.308;2023-08-12T08:33:03;3.35;;;0.50;;
82265;SDS011;71866;53.340;-6.308;2023-08-12T08:35:33;0.73;;;0.40;;
82265;SDS011;71866;53.340;-6.308;2023-08-12T08:37:59;5.03;;;1.55;;
82265;SDS011;71866;53.340;-6.308;2023-08-12T08:40:27;2.72;;;0.93;;
82265;SDS011;71866;53.340;-6.308;2023-08-12T08:42:54;1.33;;;0.68;;
82265;SDS011;71866;53.340;-6.308;2023-08-12T08:45:25;5.43;;;0.80;;
82265;SDS011;71866;53.340;-6.308;2023-08-12T08:47:52;1.55;;;0.60;;
82265;SDS011;71866;53.340;-6.308;2023-08-12T08:50:19;1.50;;;0.40;;
82265;SDS011;71866;53.340;-6.308;2023-08-12T08:52:48;2.25;;;0.40;;
82265;SDS011;71866;53.340;-6.308;2023-08-12T08:55:18;0.73;;;0.40;;
82265;SDS011;71866;53.340;-6.308;2023-08-12T08:57:48;2.03;;;0.55;;
82265;SDS011;71866;53.340;-6.308;2023-08-12T09:02:45;1.65;;;0.50;;
82265;SDS011;71866;53.340;-6.308;2023-08-12T09:05:14;1.17;;;0.35;;
82265;SDS011;71866;53.340;-6.308;2023-08-12T09:07:43;1.67;;;0.50;;
82265;SDS011;71866;53.340;-6.308;2023-08-12T09:10:10;4.50;;;1.60;;
82265;SDS011;71866;53.340;-6.308;2023-08-12T09:12:41;2.78;;;0.60;;
82265;SDS011;71866;53.340;-6.308;2023-08-12T09:15:08;2.80;;;0.65;;
82265;SDS011;71866;53.340;-6.308;2023-08-12T09:17:35;3.03;;;0.40;;
82265;SDS011;71866;53.340;-6.308;2023-08-12T09:20:04;2.17;;;1.30;;
82265;SDS011;71866;53.340;-6.308;2023-08-12T09:22:31;2.05;;;0.22;;
82265;SDS011;71866;53.340;-6.308;2023-08-12T09:24:59;2.35;;;1.13;;
82265;SDS011;71866;53.340;-6.308;2023-08-12T09:27:26;3.03;;;1.20;;
82265;SDS011;71866;53.340;-6.308;2023-08-12T09:29:55;1.75;;;0.50;;
82265;SDS011;71866;53.340;-6.308;2023-08-12T09:32:22;0.98;;;0.38;;
82265;SDS011;71866;53.340;-6.308;2023-08-12T09:34:51;2.92;;;0.30;;
82265;SDS011;71866;53.340;-6.308;2023-08-12T09:37:21;1.10;;;0.40;;
82265;SDS011;71866;53.340;-6.308;2023-08-12T09:39:52;1.95;;;0.35;;
82265;SDS011;71866;53.340;-6.308;2023-08-12T09:42:21;3.25;;;0.40;;
82265;SDS011;71866;53.340;-6.308;2023-08-12T09:44:47;2.33;;;0.50;;
82265;SDS011;71866;53.340;-6.308;2023-08-12T09:47:14;1.95;;;0.77;;
82265;SDS011;71866;53.340;-6.308;2023-08-12T09:49:42;1.00;;;0.77;;
82265;SDS011;71866;53.340;-6.308;2023-08-12T09:52:08;1.27;;;0.40;;
82265;SDS011;71866;53.340;-6.308;2023-08-12T09:54:36;0.47;;;0.30;;
82265;SDS011;71866;53.340;-6.308;2023-08-12T09:57:04;1.33;;;0.40;;
82265;SDS011;71866;53.340;-6.308;2023-08-12T09:59:34;3.47;;;0.40;;
82265;SDS011;71866;53.340;-6.308;2023-08-12T10:02:03;1.00;;;0.70;;
82265;SDS011;71866;53.340;-6.308;2023-08-12T10:04:35;4.10;;;0.45;;
82265;SDS011;71866;53.340;-6.308;2023-08-12T10:07:10;3.80;;;0.50;;
82265;SDS011;71866;53.340;-6.308;2023-08-12T10:09:37;1.27;;;0.40;;
82265;SDS011;71866;53.340;-6.308;2023-08-12T10:12:05;1.13;;;0.35;;
82265;SDS011;71866;53.340;-6.308;2023-08-12T10:14:34;2.38;;;0.30;;
82265;SDS011;71866;53.340;-6.308;2023-08-12T10:17:03;1.55;;;0.45;;
82265;SDS011;71866;53.340;-6.308;2023-08-12T10:19:32;3.03;;;0.40;;
82265;SDS011;71866;53.340;-6.308;2023-08-12T10:22:00;0.40;;;0.40;;
82265;SDS011;71866;53.340;-6.308;2023-08-12T10:24:30;2.03;;;0.50;;
82265;SDS011;71866;53.340;-6.308;2023-08-12T10:27:00;3.38;;;0.63;;
82265;SDS011;71866;53.340;-6.308;2023-08-12T10:29:29;2.08;;;0.40;;
82265;SDS011;71866;53.340;-6.308;2023-08-12T10:31:56;3.13;;;1.35;;
82265;SDS011;71866;53.340;-6.308;2023-08-12T10:34:24;3.40;;;0.50;;
82265;SDS011;71866;53.340;-6.308;2023-08-12T10:36:55;1.52;;;0.40;;
82265;SDS011;71866;53.340;-6.308;2023-08-12T10:39:29;2.88;;;0.50;;
82265;SDS011;71866;53.340;-6.308;2023-08-12T10:41:58;1.30;;;0.55;;
82265;SDS011;71866;53.340;-6.308;2023-08-12T10:44:39;1.63;;;0.60;;
82265;SDS011;71866;53.340;-6.308;2023-08-12T10:47:10;7.18;;;0.52;;
82265;SDS011;71866;53.340;-6.308;2023-08-12T10:49:38;2.45;;;0.73;;
82265;SDS011;71866;53.340;-6.308;2023-08-12T10:52:19;1.30;;;0.50;;
82265;SDS011;71866;53.340;-6.308;2023-08-12T10:54:54;3.90;;;0.60;;
82265;SDS011;71866;53.340;-6.308;2023-08-12T10:57:36;2.65;;;0.57;;
82265;SDS011;71866;53.340;-6.308;2023-08-12T11:00:04;2.47;;;0.38;;
82265;SDS011;71866;53.340;-6.308;2023-08-12T11:02:32;2.10;;;0.50;;
82265;SDS011;71866;53.340;-6.308;2023-08-12T11:05:03;2.10;;;0.50;;
82265;SDS011;71866;53.340;-6.308;2023-08-12T11:10:16;2.95;;;0.98;;
82265;SDS011;71866;53.340;-6.308;2023-08-12T11:18:06;1.30;;;0.50;;
82265;SDS011;71866;53.340;-6.308;2023-08-12T11:20:35;4.18;;;1.52;;
82265;SDS011;71866;53.340;-6.308;2023-08-12T11:23:04;2.63;;;0.40;;
82265;SDS011;71866;53.340;-6.308;2023-08-12T11:25:32;2.13;;;0.50;;
82265;SDS011;71866;53.340;-6.308;2023-08-12T11:28:00;3.95;;;0.40;;
82265;SDS011;71866;53.340;-6.308;2023-08-12T11:30:27;1.77;;;0.43;;
82265;SDS011;71866;53.340;-6.308;2023-08-12T11:32:58;1.38;;;0.57;;
82265;SDS011;71866;53.340;-6.308;2023-08-12T11:35:28;1.52;;;0.40;;
82265;SDS011;71866;53.340;-6.308;2023-08-12T11:37:56;3.50;;;0.50;;
82265;SDS011;71866;53.340;-6.308;2023-08-12T11:40:25;0.98;;;0.40;;
82265;SDS011;71866;53.340;-6.308;2023-08-12T11:42:54;1.42;;;0.40;;
82265;SDS011;71866;53.340;-6.308;2023-08-12T11:45:22;2.20;;;0.50;;
82265;SDS011;71866;53.340;-6.308;2023-08-12T11:47:51;3.60;;;0.50;;
82265;SDS011;71866;53.340;-6.308;2023-08-12T11:50:20;1.75;;;0.50;;
82265;SDS011;71866;53.340;-6.308;2023-08-12T11:52:50;3.92;;;2.10;;
82265;SDS011;71866;53.340;-6.308;2023-08-12T11:55:19;1.73;;;0.80;;
82265;SDS011;71866;53.340;-6.308;2023-08-12T11:57:46;4.32;;;0.50;;
82265;SDS011;71866;53.340;-6.308;2023-08-12T12:00:13;6.10;;;0.50;;
82265;SDS011;71866;53.340;-6.308;2023-08-12T12:05:17;2.22;;;0.60;;
82265;SDS011;71866;53.340;-6.308;2023-08-12T12:07:49;2.97;;;1.00;;
82265;SDS011;71866;53.340;-6.308;2023-08-12T12:10:26;1.23;;;0.50;;
82265;SDS011;71866;53.340;-6.308;2023-08-12T12:13:00;2.38;;;0.50;;
82265;SDS011;71866;53.340;-6.308;2023-08-12T12:15:27;1.92;;;0.50;;
82265;SDS011;71866;53.340;-6.308;2023-08-12T12:17:55;4.13;;;0.75;;
82265;SDS011;71866;53.340;-6.308;2023-08-12T12:20:21;2.80;;;0.40;;
82265;SDS011;71866;53.340;-6.308;2023-08-12T12:22:49;5.75;;;0.80;;
82265;SDS011;71866;53.340;-6.308;2023-08-12T12:25:16;3.00;;;0.50;;
82265;SDS011;71866;53.340;-6.308;2023-08-12T12:27:44;5.55;;;1.00;;
82265;SDS011;71866;53.340;-6.308;2023-08-12T12:30:13;4.63;;;1.25;;
82265;SDS011;71866;53.340;-6.308;2023-08-12T12:32:41;1.08;;;0.60;;
82265;SDS011;71866;53.340;-6.308;2023-08-12T12:35:09;1.25;;;0.40;;
82265;SDS011;71866;53.340;-6.308;2023-08-12T12:37:36;2.47;;;0.60;;
82265;SDS011;71866;53.340;-6.308;2023-08-12T12:40:04;1.25;;;0.30;;
82265;SDS011;71866;53.340;-6.308;2023-08-12T12:42:31;3.55;;;1.45;;
82265;SDS011;71866;53.340;-6.308;2023-08-12T12:44:57;2.67;;;0.82;;
82265;SDS011;71866;53.340;-6.308;2023-08-12T12:47:25;3.10;;;1.25;;
82265;SDS011;71866;53.340;-6.308;2023-08-12T12:49:52;3.65;;;0.70;;
82265;SDS011;71866;53.340;-6.308;2023-08-12T12:52:19;1.70;;;0.70;;
82265;SDS011;71866;53.340;-6.308;2023-08-12T12:54:46;1.70;;;0.50;;
82265;SDS011;71866;53.340;-6.308;2023-08-12T12:57:14;1.58;;;0.55;;
82265;SDS011;71866;53.340;-6.308;2023-08-12T12:59:42;2.08;;;0.52;;
82265;SDS011;71866;53.340;-6.308;2023-08-12T13:02:09;1.67;;;0.88;;
82265;SDS011;71866;53.340;-6.308;2023-08-12T13:04:37;2.35;;;0.60;;
82265;SDS011;71866;53.340;-6.308;2023-08-12T13:07:04;1.50;;;0.77;;
82265;SDS011;71866;53.340;-6.308;2023-08-12T13:09:30;5.18;;;1.20;;
82265;SDS011;71866;53.340;-6.308;2023-08-12T13:11:58;0.90;;;0.68;;
82265;SDS011;71866;53.340;-6.308;2023-08-12T13:14:24;0.90;;;0.52;;
82265;SDS011;71866;53.340;-6.308;2023-08-12T13:16:52;0.38;;;0.30;;
82265;SDS011;71866;53.340;-6.308;2023-08-12T13:19:19;1.80;;;0.40;;
82265;SDS011;71866;53.340;-6.308;2023-08-12T13:21:46;2.08;;;0.60;;
82265;SDS011;71866;53.340;-6.308;2023-08-12T13:24:13;1.42;;;0.50;;
82265;SDS011;71866;53.340;-6.308;2023-08-12T13:26:39;2.60;;;0.70;;
82265;SDS011;71866;53.340;-6.308;2023-08-12T13:29:07;2.72;;;0.90;;
82265;SDS011;71866;53.340;-6.308;2023-08-12T13:31:34;3.05;;;0.98;;
82265;SDS011;71866;53.340;-6.308;2023-08-12T13:34:00;5.43;;;2.00;;
82265;SDS011;71866;53.340;-6.308;2023-08-12T13:36:28;1.83;;;0.70;;
82265;SDS011;71866;53.340;-6.308;2023-08-12T13:38:55;2.80;;;0.63;;
82265;SDS011;71866;53.340;-6.308;2023-08-12T13:41:26;2.43;;;0.50;;
82265;SDS011;71866;53.340;-6.308;2023-08-12T13:43:52;1.85;;;0.73;;
82265;SDS011;71866;53.340;-6.308;2023-08-12T13:46:20;1.30;;;0.40;;
82265;SDS011;71866;53.340;-6.308;2023-08-12T13:48:48;2.25;;;0.60;;
82265;SDS011;71866;53.340;-6.308;2023-08-12T13:51:14;2.13;;;0.40;;
82265;SDS011;71866;53.340;-6.308;2023-08-12T13:53:41;2.30;;;0.60;;
82265;SDS011;71866;53.340;-6.308;2023-08-12T13:56:09;1.95;;;0.43;;
82265;SDS011;71866;53.340;-6.308;2023-08-12T13:58:35;2.45;;;0.50;;
82265;SDS011;71866;53.340;-6.308;2023-08-12T14:01:03;0.90;;;0.47;;
82265;SDS011;71866;53.340;-6.308;2023-08-12T14:03:29;2.28;;;0.60;;
82265;SDS011;71866;53.340;-6.308;2023-08-12T14:05:56;2.25;;;0.80;;
82265;SDS011;71866;53.340;-6.308;2023-08-12T14:08:24;1.50;;;0.60;;
82265;SDS011;71866;53.340;-6.308;2023-08-12T14:10:52;3.03;;;0.70;;
82265;SDS011;71866;53.340;-6.308;2023-08-12T14:13:19;5.15;;;1.83;;
82265;SDS011;71866;53.340;-6.308;2023-08-12T14:15:46;1.30;;;0.43;;
82265;SDS011;71866;53.340;-6.308;2023-08-12T14:18:14;2.28;;;0.60;;
82265;SDS011;71866;53.340;-6.308;2023-08-12T14:20:40;2.10;;;0.73;;
82265;SDS011;71866;53.340;-6.308;2023-08-12T14:23:07;2.40;;;1.00;;
82265;SDS011;71866;53.340;-6.308;2023-08-12T14:25:35;3.10;;;1.60;;
82265;SDS011;71866;53.340;-6.308;2023-08-12T14:28:02;3.15;;;0.90;;
82265;SDS011;71866;53.340;-6.308;2023-08-12T14:30:29;0.88;;;0.50;;
82265;SDS011;71866;53.340;-6.308;2023-08-12T14:32:56;1.88;;;0.52;;
82265;SDS011;71866;53.340;-6.308;2023-08-12T14:35:23;1.23;;;0.50;;
82265;SDS011;71866;53.340;-6.308;2023-08-12T14:37:51;1.25;;;0.47;;
82265;SDS011;71866;53.340;-6.308;2023-08-12T14:40:17;1.55;;;0.50;;
82265;SDS011;71866;53.340;-6.308;2023-08-12T14:42:45;0.80;;;0.70;;
82265;SDS011;71866;53.340;-6.308;2023-08-12T14:45:12;2.65;;;0.88;;
82265;SDS011;71866;53.340;-6.308;2023-08-12T14:47:40;2.17;;;0.45;;
82265;SDS011;71866;53.340;-6.308;2023-08-12T14:50:07;1.25;;;0.40;;
82265;SDS011;71866;53.340;-6.308;2023-08-12T14:52:33;1.95;;;0.50;;
82265;SDS011;71866;53.340;-6.308;2023-08-12T14:55:01;3.08;;;0.60;;
82265;SDS011;71866;53.340;-6.308;2023-08-12T14:57:28;3.25;;;0.32;;
82265;SDS011;71866;53.340;-6.308;2023-08-12T14:59:56;2.58;;;0.63;;
82265;SDS011;71866;53.340;-6.308;2023-08-12T15:02:22;7.95;;;3.88;;